Time;durP1;ratioP1;P1;durP2;ratioP2;P2;SDS_P1;SDS_P2;PMS_P1;PMS_P2;Temp;Humidity;BMP_temperature;BMP_pressure;BME280_temperature;BME280_humidity;BME280_pressure;Samples;Min_cycle;Max_cycle;Signal;HPM_P1;HPM_P2
2021/05/23 00:00:33;;;;;;;4.93;3.03;;;;;;;14.39;100.00;100410.75;5032145;28;20075;-66
2021/05/23 00:03:02;;;;;;;6.18;2.47;;;;;;;14.14;100.00;100379.78;5032244;28;20026;-67
2021/05/23 00:05:29;;;;;;;5.40;2.92;;;;;;;13.89;100.00;100382.13;5031862;28;20026;-66
2021/05/23 00:08:00;;;;;;;5.88;2.92;;;;;;;13.74;100.00;100406.47;5032011;28;20026;-67
2021/05/23 00:10:27;;;;;;;5.97;2.63;;;;;;;13.34;100.00;100382.00;5032086;28;20030;-66
2021/05/23 00:12:54;;;;;;;6.60;3.95;;;;;;;13.35;100.00;100388.09;5032011;28;20406;-66
2021/05/23 00:15:26;;;;;;;6.95;3.63;;;;;;;13.54;100.00;100403.84;5031980;28;20496;-66
2021/05/23 00:17:52;;;;;;;4.13;2.88;;;;;;;13.32;100.00;100368.13;5032030;28;20022;-66
2021/05/23 00:20:18;;;;;;;8.73;3.03;;;;;;;13.12;100.00;100355.94;5032026;28;20025;-66
2021/05/23 00:22:44;;;;;;;6.03;3.10;;;;;;;12.93;100.00;100352.34;5032037;28;20049;-66
2021/05/23 00:25:13;;;;;;;5.13;3.35;;;;;;;13.02;100.00;100386.69;5031857;28;20034;-66
2021/05/23 00:27:39;;;;;;;4.80;3.50;;;;;;;12.71;100.00;100347.34;5031863;28;20167;-66
2021/05/23 00:30:05;;;;;;;5.80;3.30;;;;;;;12.53;100.00;100334.06;5031686;28;20116;-66
2021/05/23 00:32:30;;;;;;;7.15;3.55;;;;;;;12.75;100.00;100373.22;5031892;28;20034;-66
2021/05/23 00:34:56;;;;;;;8.02;3.22;;;;;;;12.81;100.00;100369.22;5030765;28;20035;-66
2021/05/23 00:37:26;;;;;;;5.30;3.33;;;;;;;12.74;100.00;100358.44;5031793;28;20152;-66
2021/05/23 00:39:51;;;;;;;6.28;3.20;;;;;;;12.84;100.00;100361.06;5034378;28;20033;-66
2021/05/23 00:42:17;;;;;;;6.38;3.03;;;;;;;12.93;100.00;100362.03;5035349;28;20040;-66
2021/05/23 00:44:42;;;;;;;6.47;3.88;;;;;;;12.97;100.00;100356.34;5034402;28;20021;-67
2021/05/23 00:47:07;;;;;;;5.10;3.00;;;;;;;13.32;100.00;100393.63;5035620;28;20473;-67
2021/05/23 00:49:37;;;;;;;5.40;2.88;;;;;;;13.25;100.00;100376.72;5035506;28;20179;-67
2021/05/23 00:52:06;;;;;;;3.90;2.88;;;;;;;13.13;100.00;100357.63;5035295;28;20487;-67
2021/05/23 00:54:32;;;;;;;5.83;3.10;;;;;;;13.17;100.00;100394.03;5035324;28;20037;-67
2021/05/23 00:56:58;;;;;;;5.65;2.83;;;;;;;12.99;100.00;100387.78;5035190;28;20047;-66
2021/05/23 00:59:23;;;;;;;4.82;2.92;;;;;;;12.84;100.00;100370.75;5035152;28;20108;-67
2021/05/23 01:02:27;;;;;;;5.03;3.15;;;;;;;12.89;100.00;100410.63;5035132;28;20018;-67
2021/05/23 01:04:52;;;;;;;6.70;3.42;;;;;;;12.75;100.00;100391.63;5035267;28;20547;-67
2021/05/23 01:07:18;;;;;;;5.88;3.45;;;;;;;12.60;100.00;100376.41;5034622;28;20026;-67
2021/05/23 01:09:43;;;;;;;6.35;3.53;;;;;;;12.50;100.00;100385.09;5035070;28;20083;-67
2021/05/23 01:12:53;;;;;;;5.43;3.47;;;;;;;12.74;100.00;100421.53;5034857;28;20022;-67
2021/05/23 01:15:35;;;;;;;5.97;3.13;;;;;;;12.66;100.00;100425.81;5034434;28;20483;-67
2021/05/23 01:18:14;;;;;;;8.13;3.17;;;;;;;12.28;100.00;100429.97;5034940;28;20104;-67
2021/05/23 01:20:45;;;;;;;5.30;3.38;;;;;;;11.77;100.00;100392.25;5035175;28;20037;-66
2021/05/23 01:23:23;;;;;;;6.75;3.67;;;;;;;11.79;100.00;100411.34;5034739;28;20484;-66
2021/05/23 01:25:50;;;;;;;5.20;3.70;;;;;;;11.65;100.00;100389.84;5034708;28;20033;-66
2021/05/23 01:28:17;;;;;;;10.25;4.00;;;;;;;11.66;100.00;100412.50;5034581;28;20040;-66
2021/05/23 01:30:46;;;;;;;8.75;5.00;;;;;;;11.52;100.00;100403.16;5034708;28;20035;-66
2021/05/23 01:33:15;;;;;;;5.30;4.20;;;;;;;11.46;100.00;100383.50;5034436;28;20033;-66
2021/05/23 01:35:45;;;;;;;4.55;3.50;;;;;;;11.37;100.00;100365.06;5034652;28;20034;-66
2021/05/23 01:38:14;;;;;;;9.63;4.05;;;;;;;11.36;100.00;100364.25;5034693;28;20053;-66
2021/05/23 01:40:40;;;;;;;7.13;3.95;;;;;;;11.52;100.00;100393.50;5033085;28;20033;-66
2021/05/23 01:43:07;;;;;;;10.85;4.32;;;;;;;11.22;100.00;100357.53;5034419;28;20037;-67
2021/05/23 01:45:33;;;;;;;6.65;3.83;;;;;;;11.42;100.00;100397.84;5034294;28;20400;-66
2021/05/23 01:48:01;;;;;;;7.72;3.83;;;;;;;11.32;100.00;100394.31;5034321;28;20029;-66
2021/05/23 01:50:27;;;;;;;9.27;3.60;;;;;;;11.29;100.00;100386.72;5032474;28;20054;-66
2021/05/23 01:52:58;;;;;;;5.40;4.03;;;;;;;11.47;100.00;100390.41;5034216;28;20025;-66
2021/05/23 01:55:25;;;;;;;10.70;4.05;;;;;;;11.53;100.00;100384.66;5034964;28;20025;-66
2021/05/23 01:57:51;;;;;;;7.63;3.70;;;;;;;11.63;100.00;100387.34;5032827;28;20044;-66
2021/05/23 02:00:21;;;;;;;8.23;3.75;;;;;;;11.52;100.00;100364.63;5034066;28;20072;-66
2021/05/23 02:02:47;;;;;;;10.13;4.30;;;;;;;11.65;100.00;100372.31;5032766;28;20183;-66
2021/05/23 02:05:13;;;;;;;6.63;3.90;;;;;;;11.92;100.00;100416.44;5033831;28;20076;-66
2021/05/23 02:07:39;;;;;;;8.02;3.40;;;;;;;11.96;100.00;100415.19;5033652;28;20053;-66
2021/05/23 02:10:10;;;;;;;10.50;3.85;;;;;;;11.66;100.00;100418.59;5033891;28;20088;-66
2021/05/23 02:12:35;;;;;;;11.23;4.72;;;;;;;11.53;100.00;100413.53;5034168;28;20034;-66
2021/05/23 02:15:04;;;;;;;9.45;4.25;;;;;;;11.65;100.00;100405.59;5033813;28;20025;-66
2021/05/23 02:17:34;;;;;;;8.02;5.05;;;;;;;11.75;100.00;100406.50;5033597;28;20052;-66
2021/05/23 02:19:59;;;;;;;9.02;4.57;;;;;;;11.31;100.00;100371.69;5033719;28;20018;-66
2021/05/23 02:22:25;;;;;;;7.72;4.35;;;;;;;11.17;100.00;100369.34;5033305;28;20155;-66
2021/05/23 02:24:50;;;;;;;9.45;3.90;;;;;;;10.95;100.00;100376.38;5033578;28;20030;-66
2021/05/23 02:27:16;;;;;;;6.60;3.95;;;;;;;11.05;100.00;100419.25;5033880;28;20036;-66
2021/05/23 02:29:41;;;;;;;9.85;3.45;;;;;;;10.91;100.00;100372.34;5033626;28;20040;-66
2021/05/23 02:32:07;;;;;;;10.27;4.85;;;;;;;11.21;100.00;100397.03;5033357;28;20109;-66
2021/05/23 02:34:34;;;;;;;9.98;4.00;;;;;;;11.23;100.00;100384.59;5033470;28;20041;-66
2021/05/23 02:37:00;;;;;;;6.32;4.32;;;;;;;11.21;100.00;100402.25;5033216;28;20036;-66
2021/05/23 02:39:25;;;;;;;7.85;4.10;;;;;;;11.33;100.00;100430.09;5032028;28;20021;-66
2021/05/23 02:41:51;;;;;;;7.10;4.18;;;;;;;11.39;100.00;100449.75;5033134;28;20082;-66
2021/05/23 02:44:17;;;;;;;11.55;4.55;;;;;;;11.32;100.00;100421.41;5033139;28;20037;-66
2021/05/23 02:46:42;;;;;;;10.65;4.93;;;;;;;11.17;100.00;100411.31;5033121;28;20022;-66
2021/05/23 02:49:15;;;;;;;8.57;4.25;;;;;;;11.03;100.00;100442.13;5033186;28;20025;-66
2021/05/23 02:51:41;;;;;;;10.63;4.57;;;;;;;10.67;100.00;100408.41;5033487;28;20029;-66
2021/05/23 02:54:07;;;;;;;8.68;4.13;;;;;;;10.85;100.00;100433.97;5033076;28;20033;-66
2021/05/23 02:56:33;;;;;;;7.50;3.97;;;;;;;10.86;100.00;100445.28;5032981;28;20021;-66
2021/05/23 02:58:58;;;;;;;10.88;3.78;;;;;;;10.80;100.00;100449.25;5033070;28;20025;-66
2021/05/23 03:01:24;;;;;;;9.55;4.32;;;;;;;10.74;100.00;100443.66;5032126;28;20049;-66
2021/05/23 03:03:49;;;;;;;10.55;4.53;;;;;;;10.79;100.00;100446.72;5032863;28;20475;-66
2021/05/23 03:06:15;;;;;;;7.60;4.25;;;;;;;10.60;100.00;100408.06;5032544;28;20022;-66
2021/05/23 03:08:40;;;;;;;10.77;4.45;;;;;;;10.61;100.00;100410.56;5033284;28;20044;-66
2021/05/23 03:11:06;;;;;;;9.93;3.83;;;;;;;10.79;100.00;100449.34;5032809;28;20036;-66
2021/05/23 03:13:32;;;;;;;8.65;4.93;;;;;;;10.50;100.00;100412.38;5032749;28;20026;-66
2021/05/23 03:15:57;;;;;;;7.60;4.63;;;;;;;10.68;100.00;100417.94;5032749;28;20025;-66
2021/05/23 03:18:22;;;;;;;8.65;4.40;;;;;;;10.78;100.00;100447.69;5032937;28;20546;-66
2021/05/23 03:20:48;;;;;;;9.75;4.90;;;;;;;10.76;100.00;100454.84;5031405;28;20519;-66
2021/05/23 03:23:13;;;;;;;9.32;4.60;;;;;;;10.70;100.00;100442.22;5032392;28;20053;-66
2021/05/23 03:25:39;;;;;;;9.57;4.97;;;;;;;10.53;100.00;100433.06;5032519;28;20116;-66
2021/05/23 03:28:06;;;;;;;11.00;4.50;;;;;;;10.70;100.00;100443.06;5032562;28;20033;-66
2021/05/23 03:30:37;;;;;;;13.90;4.85;;;;;;;10.59;100.00;100429.97;5032583;28;20025;-66
2021/05/23 03:33:04;;;;;;;10.32;4.40;;;;;;;10.79;100.00;100449.34;5032069;28;20056;-66
2021/05/23 03:35:30;;;;;;;10.82;4.75;;;;;;;10.74;100.00;100420.06;5032451;28;20396;-66
2021/05/23 03:37:56;;;;;;;8.43;4.35;;;;;;;10.97;100.00;100442.66;5032386;28;20037;-66
2021/05/23 03:40:21;;;;;;;6.97;4.68;;;;;;;11.13;100.00;100436.16;5032370;28;20029;-66
2021/05/23 03:42:48;;;;;;;10.00;4.80;;;;;;;10.96;100.00;100403.41;5032364;28;20030;-66
2021/05/23 03:45:16;;;;;;;9.45;3.83;;;;;;;11.40;100.00;100439.13;5032173;28;20033;-66
2021/05/23 03:47:42;;;;;;;7.82;3.50;;;;;;;11.31;100.00;100404.00;5032266;28;20032;-66
2021/05/23 03:50:10;;;;;;;7.90;3.63;;;;;;;11.66;100.00;100436.97;5032542;28;20029;-66
2021/05/23 03:52:35;;;;;;;11.45;4.20;;;;;;;11.59;100.00;100412.19;5032224;28;20558;-66
2021/05/23 03:55:01;;;;;;;15.15;4.47;;;;;;;11.80;100.00;100430.56;5032052;28;20057;-66
2021/05/23 03:57:26;;;;;;;9.95;4.10;;;;;;;11.95;100.00;100412.72;5032312;28;20028;-66
2021/05/23 03:59:52;;;;;;;10.68;3.97;;;;;;;12.05;100.00;100397.81;5032247;28;20477;-66
2021/05/23 04:02:18;;;;;;;8.68;4.45;;;;;;;12.31;100.00;100429.72;5032133;28;20083;-66
2021/05/23 04:04:56;;;;;;;12.40;4.43;;;;;;;12.52;100.00;100441.00;5032289;28;20083;-66
2021/05/23 04:07:21;;;;;;;13.40;4.82;;;;;;;12.68;100.00;100423.88;5032292;28;20029;-66
2021/05/23 04:09:48;;;;;;;12.32;4.63;;;;;;;13.12;100.00;100458.56;5032230;28;20451;-66
2021/05/23 04:12:22;;;;;;;12.27;4.47;;;;;;;13.31;100.00;100432.28;5032211;28;20026;-66
2021/05/23 04:14:47;;;;;;;7.32;3.47;;;;;;;13.67;100.00;100446.53;5035962;28;20087;-66
2021/05/23 04:17:13;;;;;;;7.05;3.72;;;;;;;14.04;100.00;100452.78;5036161;28;20025;-66
2021/05/23 04:19:38;;;;;;;9.30;3.85;;;;;;;14.26;100.00;100451.63;5035826;28;20410;-67
2021/05/23 04:22:04;;;;;;;16.73;4.80;;;;;;;14.46;100.00;100457.66;5034394;28;20034;-67
2021/05/23 04:24:33;;;;;;;7.55;3.47;;;;;;;14.46;100.00;100437.38;5035506;28;20883;-67
2021/05/23 04:26:59;;;;;;;6.80;4.10;;;;;;;14.94;100.00;100457.38;5032584;28;20121;-67
2021/05/23 04:29:24;;;;;;;10.27;3.78;;;;;;;15.05;100.00;100457.19;5034625;28;20112;-67
2021/05/23 04:31:50;;;;;;;6.05;3.13;;;;;;;15.12;100.00;100436.31;5035293;28;20021;-67
2021/05/23 04:34:15;;;;;;;12.38;4.85;;;;;;;15.59;100.00;100457.16;5035688;28;20469;-66
2021/05/23 04:36:41;;;;;;;9.05;4.43;;;;;;;15.82;100.00;100458.34;5034961;28;20481;-67
2021/05/23 04:39:06;;;;;;;5.97;4.30;;;;;;;16.03;100.00;100438.63;5034720;28;20033;-67
2021/05/23 04:41:33;;;;;;;7.20;3.70;;;;;;;16.48;100.00;100464.00;5031952;28;20067;-67
2021/05/23 04:43:59;;;;;;;6.18;4.35;;;;;;;16.59;100.00;100445.19;5034589;28;20041;-67
2021/05/23 04:46:25;;;;;;;7.05;4.25;;;;;;;17.09;100.00;100481.41;5033888;28;20108;-67
2021/05/23 04:48:50;;;;;;;6.45;4.57;;;;;;;17.28;100.00;100474.16;5033683;28;20091;-67
2021/05/23 04:51:15;;;;;;;10.57;4.78;;;;;;;17.46;100.00;100488.09;5033752;28;20060;-66
2021/05/23 04:53:41;;;;;;;6.07;4.18;;;;;;;17.66;100.00;100484.13;5034131;28;20045;-66
2021/05/23 04:56:07;;;;;;;5.38;3.67;;;;;;;17.86;100.00;100491.75;5033518;28;20029;-66
2021/05/23 04:58:32;;;;;;;4.85;3.55;;;;;;;18.20;100.00;100488.88;5033527;28;20032;-66
2021/05/23 05:00:57;;;;;;;7.30;3.72;;;;;;;18.18;100.00;100490.84;5034796;28;20091;-66
2021/05/23 05:03:23;;;;;;;7.38;4.10;;;;;;;17.89;100.00;100496.72;5035184;28;20033;-66
2021/05/23 05:05:48;;;;;;;6.78;3.60;;;;;;;18.02;100.00;100502.34;5035362;28;20031;-66
2021/05/23 05:08:14;;;;;;;4.68;3.80;;;;;;;18.13;100.00;100494.03;5035261;28;20033;-65
2021/05/23 05:10:39;;;;;;;5.85;4.40;;;;;;;18.15;100.00;100470.81;5033834;28;20210;-66
2021/05/23 05:13:05;;;;;;;9.00;6.13;;;;;;;18.39;100.00;100495.59;5034905;28;20536;-65
2021/05/23 05:15:30;;;;;;;5.43;4.05;;;;;;;18.40;100.00;100478.72;5034941;28;20037;-66
2021/05/23 05:17:56;;;;;;;5.25;4.00;;;;;;;18.56;100.00;100470.69;5035082;28;20021;-65
2021/05/23 05:20:22;;;;;;;6.32;4.38;;;;;;;18.73;100.00;100511.28;5034849;28;20104;-66
2021/05/23 05:22:47;;;;;;;6.03;4.40;;;;;;;18.68;100.00;100481.72;5034766;28;20076;-66
2021/05/23 05:25:13;;;;;;;7.78;3.75;;;;;;;18.57;100.00;100521.94;5032586;28;20029;-65
2021/05/23 05:27:38;;;;;;;6.78;4.53;;;;;;;18.47;100.00;100508.84;5034676;28;20057;-66
2021/05/23 05:30:05;;;;;;;6.25;4.60;;;;;;;18.25;100.00;100533.44;5034479;28;20017;-65
2021/05/23 05:32:31;;;;;;;6.47;5.10;;;;;;;18.46;100.00;100538.19;5033659;28;20393;-65
2021/05/23 05:34:56;;;;;;;7.53;4.43;;;;;;;18.77;100.00;100530.34;5034607;28;20029;-65
2021/05/23 05:37:22;;;;;;;5.18;3.80;;;;;;;18.28;100.00;100533.13;5034347;28;20115;-65
2021/05/23 05:39:47;;;;;;;7.45;4.10;;;;;;;18.49;100.00;100504.19;5034465;28;20022;-65
2021/05/23 05:42:13;;;;;;;6.88;5.22;;;;;;;18.64;100.00;100544.97;5033840;28;20025;-64
2021/05/23 05:44:38;;;;;;;7.10;4.15;;;;;;;18.41;100.00;100546.69;5034322;28;20033;-65
2021/05/23 05:47:04;;;;;;;8.52;5.30;;;;;;;18.10;100.00;100536.81;5034314;28;20032;-65
2021/05/23 05:49:29;;;;;;;9.57;6.38;;;;;;;17.82;100.00;100508.97;5035134;28;20535;-65
2021/05/23 05:51:55;;;;;;;9.40;6.57;;;;;;;18.14;100.00;100531.97;5034357;28;20037;-65
2021/05/23 05:54:20;;;;;;;10.63;7.10;;;;;;;18.65;100.00;100535.16;5034202;28;20041;-65
2021/05/23 05:56:45;;;;;;;9.48;7.13;;;;;;;18.86;100.00;100532.78;5034173;28;20056;-65
2021/05/23 05:59:11;;;;;;;9.57;6.63;;;;;;;18.60;100.00;100538.34;5033873;28;20030;-65
2021/05/23 06:01:36;;;;;;;27.58;22.00;;;;;;;18.94;100.00;100517.81;5034020;28;20038;-66
2021/05/23 06:04:02;;;;;;;8.48;6.75;;;;;;;19.37;100.00;100540.28;5034030;28;20028;-66
2021/05/23 06:06:28;;;;;;;10.75;8.85;;;;;;;19.62;100.00;100529.50;5033877;28;20033;-66
2021/05/23 06:08:54;;;;;;;9.70;5.45;;;;;;;19.95;100.00;100516.81;5033873;28;20103;-66
2021/05/23 06:11:21;;;;;;;8.50;5.63;;;;;;;20.41;100.00;100536.09;5033932;28;20553;-65
2021/05/23 06:13:46;;;;;;;11.52;6.88;;;;;;;20.09;100.00;100549.75;5033607;28;20026;-65
2021/05/23 06:16:12;;;;;;;6.70;5.65;;;;;;;19.87;100.00;100551.44;5033785;28;20467;-66
2021/05/23 06:18:37;;;;;;;10.88;6.90;;;;;;;20.01;100.00;100527.53;5033327;28;20029;-66
2021/05/23 06:21:03;;;;;;;7.15;6.40;;;;;;;20.02;100.00;100547.81;5032981;28;20094;-66
2021/05/23 06:23:28;;;;;;;10.68;6.05;;;;;;;20.24;100.00;100558.56;5032461;28;20052;-66
2021/05/23 06:25:54;;;;;;;11.15;6.25;;;;;;;20.35;100.00;100566.13;5033060;28;20034;-66
2021/05/23 06:28:19;;;;;;;10.93;6.93;;;;;;;20.36;100.00;100535.84;5033531;28;20036;-66
2021/05/23 06:30:45;;;;;;;9.55;6.38;;;;;;;20.68;100.00;100549.81;5033072;28;20029;-66
2021/05/23 06:33:11;;;;;;;11.10;6.93;;;;;;;21.18;100.00;100564.16;5032091;28;20041;-66
2021/05/23 06:35:36;;;;;;;8.70;6.75;;;;;;;20.57;100.00;100558.25;5032629;28;20021;-65
2021/05/23 06:38:02;;;;;;;9.63;7.38;;;;;;;20.69;100.00;100564.78;5033042;28;20026;-65
2021/05/23 06:40:27;;;;;;;11.05;7.00;;;;;;;20.83;100.00;100547.97;5032851;28;20485;-67
2021/05/23 06:42:53;;;;;;;10.57;6.75;;;;;;;21.33;100.00;100537.44;5032492;28;20075;-67
2021/05/23 06:45:18;;;;;;;9.95;6.80;;;;;;;20.90;100.00;100487.59;5033574;28;20399;-66
2021/05/23 06:47:44;;;;;;;9.20;6.50;;;;;;;21.62;100.00;100552.53;5032826;28;20108;-66
2021/05/23 06:50:10;;;;;;;8.90;7.07;;;;;;;21.33;100.00;100532.97;5032417;28;20033;-67
2021/05/23 06:52:36;;;;;;;9.90;6.05;;;;;;;21.69;100.00;100522.25;5031480;28;20120;-67
2021/05/23 06:55:01;;;;;;;10.73;6.80;;;;;;;21.21;100.00;100515.81;5030843;28;20029;-67
2021/05/23 06:57:28;;;;;;;9.02;5.93;;;;;;;21.40;100.00;100539.22;5032392;28;20044;-67
2021/05/23 06:59:54;;;;;;;8.00;5.78;;;;;;;21.61;100.00;100534.91;5032600;28;20022;-66
2021/05/23 07:02:20;;;;;;;11.93;5.68;;;;;;;21.85;100.00;100521.16;5032852;28;20544;-66
2021/05/23 07:04:46;;;;;;;8.07;5.97;;;;;;;22.17;100.00;100532.28;5032126;28;20022;-66
2021/05/23 07:07:11;;;;;;;15.80;5.85;;;;;;;22.59;100.00;100534.00;5032542;28;20405;-66
2021/05/23 07:09:37;;;;;;;8.48;5.25;;;;;;;23.02;100.00;100543.66;5031635;28;20025;-66
2021/05/23 07:12:02;;;;;;;6.70;5.32;;;;;;;22.58;100.00;100508.31;5033187;28;20464;-66
2021/05/23 07:14:28;;;;;;;8.43;5.38;;;;;;;21.84;100.00;100508.84;5033207;28;20026;-66
2021/05/23 07:16:53;;;;;;;8.48;5.90;;;;;;;21.34;100.00;100531.97;5032861;28;20140;-66
2021/05/23 07:19:19;;;;;;;8.48;5.28;;;;;;;21.85;100.00;100502.47;5032398;28;20026;-66
2021/05/23 07:21:44;;;;;;;7.95;5.13;;;;;;;22.38;100.00;100516.22;5032693;28;20038;-66
2021/05/23 07:24:10;;;;;;;7.28;5.28;;;;;;;23.03;100.00;100542.63;5031886;28;20057;-67
2021/05/23 07:26:36;;;;;;;6.93;4.93;;;;;;;23.36;100.00;100528.53;5031764;28;20152;-66
2021/05/23 07:29:02;;;;;;;6.03;4.97;;;;;;;23.73;100.00;100532.53;5032947;28;20025;-66
2021/05/23 07:31:30;;;;;;;7.13;4.95;;;;;;;23.77;100.00;100513.16;5032197;28;20021;-65
2021/05/23 07:33:56;;;;;;;14.07;4.97;;;;;;;24.34;100.00;100531.44;5031660;28;20037;-66
2021/05/23 07:36:21;;;;;;;6.68;5.07;;;;;;;24.11;100.00;100526.53;5030426;28;20033;-65
2021/05/23 07:38:47;;;;;;;6.15;4.68;;;;;;;23.69;100.00;100521.41;5031723;28;20031;-66
2021/05/23 07:41:12;;;;;;;6.75;4.38;;;;;;;23.99;100.00;100518.28;5031649;28;20021;-65
2021/05/23 07:43:39;;;;;;;4.82;3.58;;;;;;;24.17;100.00;100493.56;5031693;28;20029;-66
2021/05/23 07:46:04;;;;;;;5.00;3.40;;;;;;;24.84;100.00;100520.97;5031668;28;20024;-66
2021/05/23 07:48:31;;;;;;;6.85;3.70;;;;;;;25.08;100.00;100519.44;5030984;28;20030;-66
2021/05/23 07:50:56;;;;;;;5.38;3.95;;;;;;;25.29;100.00;100521.00;5031485;28;20095;-66
2021/05/23 07:53:22;;;;;;;5.85;5.00;;;;;;;25.19;100.00;100498.13;5031276;28;20025;-67
2021/05/23 07:55:47;;;;;;;5.70;4.63;;;;;;;25.71;100.00;100507.88;5030183;28;20404;-66
2021/05/23 07:58:13;;;;;;;9.02;4.57;;;;;;;25.16;100.00;100509.28;5031900;28;20083;-66
2021/05/23 08:00:42;;;;;;;4.68;3.30;;;;;;;25.32;100.00;100512.50;5031396;28;20026;-67
2021/05/23 08:03:08;;;;;;;7.67;3.70;;;;;;;25.29;96.07;100507.56;5044170;28;20404;-66
2021/05/23 08:05:35;;;;;;;6.03;3.30;;;;;;;25.34;95.50;100480.91;5031360;28;20030;-67
2021/05/23 08:08:01;;;;;;;6.13;3.42;;;;;;;25.53;94.03;100498.72;5031197;28;20056;-67
2021/05/23 08:10:29;;;;;;;4.05;3.05;;;;;;;25.54;92.99;100505.72;5031280;28;20496;-67
2021/05/23 08:12:55;;;;;;;5.50;2.80;;;;;;;25.58;94.44;100480.13;5031361;28;20034;-67
2021/05/23 08:15:21;;;;;;;5.55;2.90;;;;;;;26.05;90.04;100496.63;5031458;28;20504;-67
2021/05/23 08:17:47;;;;;;;3.83;2.60;;;;;;;26.41;71.91;100505.78;5031787;28;20028;-67
2021/05/23 08:20:14;;;;;;;4.85;3.20;;;;;;;26.37;73.10;100510.78;5031919;28;20112;-66
2021/05/23 08:22:40;;;;;;;6.07;3.42;;;;;;;26.00;76.08;100495.69;5030984;28;20038;-67
2021/05/23 08:25:07;;;;;;;5.63;3.33;;;;;;;26.29;70.25;100483.38;5031517;28;20195;-66
2021/05/23 08:27:33;;;;;;;4.25;2.97;;;;;;;26.33;59.27;100481.91;5031597;28;20042;-67
2021/05/23 08:29:59;;;;;;;5.28;2.60;;;;;;;26.86;58.57;100516.22;5031970;28;20412;-66
2021/05/23 08:32:26;;;;;;;5.07;3.03;;;;;;;27.02;55.25;100502.13;5032175;28;20122;-66
2021/05/23 08:34:51;;;;;;;4.57;3.10;;;;;;;26.81;56.36;100513.41;5031916;28;20087;-66
2021/05/23 08:37:18;;;;;;;6.68;3.28;;;;;;;26.85;56.65;100523.47;5031789;28;20030;-67
2021/05/23 08:39:44;;;;;;;4.53;3.28;;;;;;;26.47;55.61;100496.84;5031648;28;20082;-67
2021/05/23 08:42:09;;;;;;;4.10;2.80;;;;;;;27.03;59.18;100522.63;5031550;28;20124;-66
2021/05/23 08:44:36;;;;;;;6.13;3.28;;;;;;;27.41;56.02;100526.06;5031045;28;20469;-67
2021/05/23 08:47:02;;;;;;;6.00;2.83;;;;;;;27.54;55.90;100520.47;5031331;28;20068;-67
2021/05/23 08:49:38;;;;;;;5.32;3.55;;;;;;;26.83;56.92;100527.41;5032079;28;21359;-66
2021/05/23 08:52:03;;;;;;;4.43;3.33;;;;;;;27.00;56.64;100520.38;5029986;28;20037;-66
2021/05/23 08:54:29;;;;;;;6.95;2.85;;;;;;;26.97;58.07;100510.09;5031533;28;20109;-66
2021/05/23 08:56:54;;;;;;;4.75;2.75;;;;;;;26.90;56.88;100514.72;5031974;28;20044;-66
2021/05/23 08:59:20;;;;;;;4.80;2.90;;;;;;;26.52;56.77;100510.41;5031656;28;20558;-67
2021/05/23 09:01:46;;;;;;;6.25;3.22;;;;;;;26.69;58.27;100512.50;5034696;28;20032;-67
2021/05/23 09:04:19;;;;;;;5.65;2.97;;;;;;;26.83;55.71;100505.91;5034845;28;20030;-66
2021/05/23 09:06:45;;;;;;;6.55;3.15;;;;;;;26.46;56.64;100505.09;5035647;28;20056;-66
2021/05/23 09:09:15;;;;;;;5.82;3.55;;;;;;;26.52;57.33;100488.09;5035070;28;20495;-66
2021/05/23 09:11:54;;;;;;;4.97;3.00;;;;;;;26.73;54.90;100481.44;5033807;28;20484;-66
2021/05/23 09:14:49;;;;;;;;;;;;;;;26.75;55.85;100498.97;5035571;28;20026;-67
2021/05/23 09:17:25;;;;;;;4.45;2.60;;;;;;;26.99;59.01;100507.97;5034247;28;19908;-66
2021/05/23 09:19:52;;;;;;;5.95;2.60;;;;;;;26.78;55.93;100481.59;5035270;28;20508;-66
2021/05/23 09:22:21;;;;;;;4.15;2.50;;;;;;;26.71;53.93;100491.59;5034686;28;20025;-66
2021/05/23 09:24:58;;;;;;;4.20;2.33;;;;;;;27.03;55.48;100478.75;5034749;28;20036;-66
2021/05/23 09:27:27;;;;;;;4.03;2.50;;;;;;;27.63;53.43;100483.25;5034389;28;20052;-66
2021/05/23 09:30:09;;;;;;;3.30;2.20;;;;;;;28.07;44.34;100505.28;5035122;28;20021;-66
2021/05/23 09:32:41;;;;;;;4.30;2.60;;;;;;;27.89;48.24;100484.69;5034663;28;20124;-66
2021/05/23 09:35:08;;;;;;;3.97;2.30;;;;;;;27.76;47.43;100491.13;5034538;28;20033;-66
2021/05/23 09:37:34;;;;;;;4.03;2.55;;;;;;;27.35;46.78;100471.28;5034412;28;20147;-66
2021/05/23 09:40:01;;;;;;;4.22;2.40;;;;;;;27.51;47.20;100478.69;5034230;28;20030;-66
2021/05/23 09:42:27;;;;;;;5.35;2.30;;;;;;;27.81;47.20;100496.66;5034888;28;20032;-66
2021/05/23 09:44:57;;;;;;;3.25;2.15;;;;;;;27.81;48.19;100488.56;5034409;28;20030;-66
2021/05/23 09:47:22;;;;;;;4.07;2.20;;;;;;;27.97;47.43;100505.88;5034292;28;20069;-66
2021/05/23 09:49:56;;;;;;;4.60;1.98;;;;;;;27.23;47.51;100473.91;5034447;28;20049;-66
2021/05/23 09:52:39;;;;;;;4.82;2.10;;;;;;;26.95;47.11;100498.72;5034231;28;20046;-66
2021/05/23 09:55:06;;;;;;;4.50;2.30;;;;;;;26.44;48.20;100467.72;5034619;28;20030;-66
2021/05/23 09:57:32;;;;;;;4.90;2.38;;;;;;;26.35;49.84;100477.94;5034270;28;20033;-66
2021/05/23 09:59:59;;;;;;;3.92;1.83;;;;;;;26.71;51.56;100486.22;5034118;28;20116;-66
2021/05/23 10:02:24;;;;;;;4.97;2.45;;;;;;;27.01;50.28;100448.59;5034105;28;20057;-66
2021/05/23 10:04:50;;;;;;;6.07;2.30;;;;;;;27.36;48.44;100423.66;5033477;28;20546;-66
2021/05/23 10:07:15;;;;;;;4.65;2.20;;;;;;;28.14;44.63;100487.13;5033967;28;20021;-66
2021/05/23 10:09:41;;;;;;;3.80;2.20;;;;;;;28.52;44.63;100483.09;5034211;28;20167;-67
2021/05/23 10:12:10;;;;;;;2.40;1.85;;;;;;;28.63;43.07;100458.81;5032523;28;20036;-66
2021/05/23 10:14:37;;;;;;;3.55;2.08;;;;;;;29.02;43.71;100460.88;5033950;28;20041;-67
2021/05/23 10:17:07;;;;;;;4.10;2.10;;;;;;;29.44;46.12;100477.53;5033706;28;20045;-67
2021/05/23 10:19:34;;;;;;;8.82;2.45;;;;;;;29.16;42.71;100451.44;5033538;28;20040;-67
2021/05/23 10:22:02;;;;;;;5.45;3.45;;;;;;;29.47;42.60;100438.44;5033610;28;20376;-66
2021/05/23 10:24:47;;;;;;;4.10;2.30;;;;;;;29.23;41.92;100467.44;5033840;28;20088;-66
2021/05/23 10:27:24;;;;;;;4.50;2.05;;;;;;;28.74;40.72;100459.81;5034028;28;20029;-66
2021/05/23 10:29:53;;;;;;;4.53;2.05;;;;;;;28.19;41.68;100436.06;5033558;28;20123;-66
2021/05/23 10:32:21;;;;;;;6.60;2.25;;;;;;;28.25;41.71;100429.72;5033703;28;20033;-67
2021/05/23 10:34:48;;;;;;;4.45;2.13;;;;;;;28.75;43.36;100450.66;5033249;28;20025;-66
2021/05/23 10:37:24;;;;;;;6.40;1.92;;;;;;;28.55;41.17;100423.31;5031684;28;20025;-66
2021/05/23 10:39:54;;;;;;;2.20;1.60;;;;;;;28.67;39.67;100449.19;5033660;28;20037;-66
2021/05/23 10:42:27;;;;;;;3.88;2.08;;;;;;;28.52;39.92;100445.34;5032895;28;20029;-66
2021/05/23 10:44:54;;;;;;;4.70;1.80;;;;;;;28.58;38.35;100437.13;5033860;28;20029;-66
2021/05/23 10:47:34;;;;;;;3.20;1.58;;;;;;;28.30;39.46;100431.69;5033906;28;20040;-66
2021/05/23 10:50:02;;;;;;;2.45;1.80;;;;;;;28.37;41.92;100430.50;5033464;28;20108;-66
2021/05/23 10:52:31;;;;;;;4.10;1.98;;;;;;;28.81;39.25;100432.72;5033089;28;20492;-65
2021/05/23 10:55:05;;;;;;;3.25;1.80;;;;;;;28.89;36.36;100435.84;5033077;28;20480;-67
2021/05/23 10:57:48;;;;;;;5.60;1.42;;;;;;;28.35;34.98;100412.91;5033153;28;20036;-66
2021/05/23 11:00:27;;;;;;;3.45;1.70;;;;;;;27.74;36.66;100409.72;5032982;28;20120;-66
2021/05/23 11:02:54;;;;;;;5.65;1.92;;;;;;;28.50;38.93;100428.63;5032706;28;20025;-67
2021/05/23 11:05:30;;;;;;;2.53;1.42;;;;;;;28.40;36.66;100426.53;5032294;28;20029;-66
2021/05/23 11:07:58;;;;;;;2.13;1.52;;;;;;;28.17;38.04;100385.09;5032769;28;20508;-66
2021/05/23 11:10:30;;;;;;;8.63;3.85;;;;;;;28.48;38.75;100393.81;5032474;28;20060;-66
2021/05/23 11:12:58;;;;;;;3.78;1.60;;;;;;;28.74;38.65;100405.88;5031654;28;20388;-66
2021/05/23 11:15:25;;;;;;;2.53;1.67;;;;;;;28.91;39.80;100401.34;5031369;28;20118;-64
2021/05/23 11:17:54;;;;;;;2.97;1.35;;;;;;;29.05;39.18;100384.88;5032527;28;20021;-65
2021/05/23 11:20:23;;;;;;;4.95;1.50;;;;;;;29.14;38.73;100396.91;5032318;28;20037;-65